createdAt,value
2023-07-03T00:00:07.345Z,1.04
2023-07-03T00:01:07.493Z,1.04
2023-07-03T00:02:07.672Z,1.04
2023-07-03T00:03:07.801Z,1.04
2023-07-03T00:04:08.012Z,1.04
2023-07-03T00:05:08.135Z,1.04
2023-07-03T00:06:08.237Z,1.04
2023-07-03T00:07:08.382Z,1.04
2023-07-03T00:08:08.551Z,1.04
2023-07-03T00:09:08.691Z,1.04
2023-07-03T00:10:08.839Z,1.04
2023-07-03T00:11:09.007Z,1.04
2023-07-03T00:13:09.305Z,1.04
2023-07-03T00:14:09.480Z,1.04
2023-07-03T00:15:09.606Z,1.04
2023-07-03T00:16:09.803Z,1.04
2023-07-03T00:17:09.917Z,1.04
2023-07-03T00:18:10.076Z,1.04
2023-07-03T00:19:10.220Z,1.04
2023-07-03T00:20:10.381Z,1.04
2023-07-03T00:21:10.515Z,1.04
2023-07-03T00:22:10.685Z,1.04
2023-07-03T00:23:10.818Z,1.04
2023-07-03T00:24:10.972Z,1.04
2023-07-03T00:25:11.125Z,1.04
2023-07-03T00:26:11.278Z,1.04
2023-07-03T00:27:11.435Z,1.04
2023-07-03T00:28:11.583Z,1.04
2023-07-03T00:29:11.733Z,1.04
2023-07-03T00:30:11.896Z,1.04
2023-07-03T00:31:12.046Z,1.04
2023-07-03T00:32:12.219Z,1.04
2023-07-03T00:33:12.345Z,1.04
2023-07-03T00:34:12.497Z,1.04
2023-07-03T00:35:12.647Z,1.04
2023-07-03T00:36:12.816Z,1.04
2023-07-03T00:37:12.965Z,1.04
2023-07-03T00:38:13.118Z,1.04
2023-07-03T00:39:13.246Z,1.04
2023-07-03T00:40:13.426Z,1.04
2023-07-03T00:41:13.591Z,1.04
2023-07-03T00:42:13.712Z,1.04
2023-07-03T00:43:13.878Z,1.04
2023-07-03T00:44:14.023Z,1.04
2023-07-03T00:45:14.201Z,1.04
2023-07-03T00:46:14.320Z,1.04
2023-07-03T00:47:14.472Z,1.04
2023-07-03T00:48:14.627Z,1.04
2023-07-03T00:49:14.774Z,1.04
2023-07-03T00:50:14.962Z,1.04
2023-07-03T00:51:15.077Z,1.04
2023-07-03T00:52:15.227Z,1.04
2023-07-03T00:53:16.163Z,1.04
2023-07-03T00:54:15.480Z,1.04
2023-07-03T00:55:15.633Z,1.04
2023-07-03T00:56:15.783Z,1.04
2023-07-03T00:57:15.938Z,1.04
2023-07-03T00:58:16.091Z,1.04
2023-07-03T00:59:16.281Z,1.04
2023-07-03T01:00:16.396Z,1.04
2023-07-03T01:01:16.589Z,1.04
2023-07-03T01:02:16.691Z,1.04
2023-07-03T01:03:16.854Z,1.04
2023-07-03T01:04:17.110Z,1.04
2023-07-03T01:05:17.208Z,1.04
2023-07-03T01:06:17.256Z,1.04
2023-07-03T01:07:17.406Z,1.04
2023-07-03T01:08:17.567Z,1.04
2023-07-03T01:09:17.698Z,1.04
2023-07-03T01:10:17.851Z,1.04
2023-07-03T01:11:18.002Z,1.04
2023-07-03T01:12:18.161Z,1.04
2023-07-03T01:13:18.309Z,1.04
2023-07-03T01:14:18.454Z,1.04
2023-07-03T01:15:18.638Z,1.04
2023-07-03T01:16:18.785Z,1.04
2023-07-03T01:17:18.935Z,1.04
2023-07-03T01:18:19.059Z,1.04
2023-07-03T01:19:19.236Z,1.04
2023-07-03T01:20:19.380Z,1.04
2023-07-03T01:21:19.535Z,1.04
2023-07-03T01:22:19.693Z,1.04
2023-07-03T01:23:20.532Z,1.04
2023-07-03T01:25:20.155Z,1.04
2023-07-03T01:26:20.294Z,1.04
2023-07-03T01:27:20.506Z,1.04
2023-07-03T01:28:20.604Z,1.04
2023-07-03T01:29:20.782Z,1.04
2023-07-03T01:30:20.917Z,1.04
2023-07-03T01:31:21.076Z,1.04
2023-07-03T01:32:21.280Z,1.04
2023-07-03T01:33:21.358Z,1.04
2023-07-03T01:34:21.507Z,1.04
2023-07-03T01:35:21.665Z,1.04
2023-07-03T01:36:21.813Z,1.04
2023-07-03T01:37:21.964Z,1.04
2023-07-03T01:38:22.120Z,1.04
2023-07-03T01:39:22.267Z,1.04
2023-07-03T01:40:22.423Z,1.04
2023-07-03T01:41:22.563Z,1.04
2023-07-03T01:42:22.734Z,1.04
2023-07-03T01:43:22.874Z,1.04
2023-07-03T01:44:23.033Z,1.04
2023-07-03T01:45:23.198Z,1.04
2023-07-03T01:46:23.482Z,1.04
2023-07-03T01:47:23.539Z,1.04
2023-07-03T01:48:23.639Z,1.04
2023-07-03T01:49:23.737Z,1.04
2023-07-03T01:50:23.887Z,1.04
2023-07-03T01:51:24.040Z,1.04
2023-07-03T01:52:24.230Z,1.04
2023-07-03T01:53:24.356Z,1.04
2023-07-03T01:54:24.533Z,1.04
2023-07-03T01:55:24.652Z,1.04
2023-07-03T01:56:24.799Z,1.04
2023-07-03T01:57:24.970Z,1.04
2023-07-03T01:58:25.125Z,1.04
2023-07-03T01:59:25.292Z,1.04
2023-07-03T02:00:25.405Z,1.04
2023-07-03T02:01:25.596Z,1.04
2023-07-03T02:02:25.730Z,1.04
2023-07-03T02:03:25.979Z,1.04
2023-07-03T02:04:26.025Z,1.04
2023-07-03T02:05:26.133Z,1.04
2023-07-03T02:06:26.276Z,1.04
2023-07-03T02:07:26.431Z,1.04
2023-07-03T02:08:26.574Z,1.04
2023-07-03T02:09:26.694Z,1.04
2023-07-03T02:10:26.827Z,2
2023-07-03T02:11:26.991Z,2
2023-07-03T02:12:27.129Z,2
2023-07-03T02:13:27.307Z,2
2023-07-03T02:14:27.431Z,2
2023-07-03T02:15:27.574Z,2
2023-07-03T02:16:27.774Z,2
2023-07-03T02:17:27.894Z,3.04
2023-07-03T02:18:28.048Z,3.04
2023-07-03T02:19:28.211Z,3.04
2023-07-03T02:20:28.353Z,4
2023-07-03T02:21:28.485Z,4
2023-07-03T02:22:28.590Z,4
2023-07-03T02:23:28.750Z,5.04
2023-07-03T02:24:29.072Z,5.04
2023-07-03T02:25:29.069Z,6
2023-07-03T02:26:29.219Z,7.04
2023-07-03T02:27:29.356Z,8
2023-07-03T02:29:29.690Z,10
2023-07-03T02:30:29.808Z,12
2023-07-03T02:31:30.000Z,14
2023-07-03T02:32:30.144Z,15.04
2023-07-03T02:33:30.263Z,18
2023-07-03T02:34:30.424Z,20
2023-07-03T02:35:30.589Z,23.04
2023-07-03T02:36:30.791Z,26
2023-07-03T02:37:30.869Z,29.04
2023-07-03T02:38:31.033Z,34
2023-07-03T02:39:31.177Z,38
2023-07-03T02:40:31.332Z,45.04
2023-07-03T02:41:31.489Z,50
2023-07-03T02:42:31.637Z,57.04
2023-07-03T02:43:31.809Z,65.04
2023-07-03T02:44:31.944Z,72
2023-07-03T02:45:32.086Z,80
2023-07-03T02:46:32.291Z,90
2023-07-03T02:47:32.450Z,95.04
2023-07-03T02:48:32.552Z,107.04
2023-07-03T02:49:32.721Z,117.04
2023-07-03T02:50:32.847Z,131.04
2023-07-03T02:51:32.999Z,144
2023-07-03T02:52:33.670Z,156
2023-07-03T02:54:34.174Z,187.04
2023-07-03T02:56:34.433Z,222.08
2023-07-03T02:58:34.205Z,261.12
2023-07-03T03:00:34.914Z,306.08
2023-07-03T03:02:35.146Z,349.12
2023-07-03T03:03:34.717Z,369.28
2023-07-03T03:04:34.873Z,389.12
2023-07-03T03:05:34.981Z,413.12
2023-07-03T03:06:35.138Z,433.28
2023-07-03T03:07:35.289Z,455.04
2023-07-03T03:08:35.443Z,480
2023-07-03T03:09:35.606Z,498.24
2023-07-03T03:10:35.741Z,517.12
2023-07-03T03:11:35.937Z,543.04
2023-07-03T03:12:36.043Z,566.08
2023-07-03T03:13:36.203Z,591.04
2023-07-03T03:14:36.351Z,619.2
2023-07-03T03:15:36.509Z,656
2023-07-03T03:16:36.661Z,686.08
2023-07-03T03:17:36.841Z,717.44
2023-07-03T03:18:36.952Z,756.48
2023-07-03T03:19:37.138Z,788.48
2023-07-03T03:20:37.261Z,819.2
2023-07-03T03:21:37.361Z,852.48
2023-07-03T03:22:37.510Z,892.16
2023-07-03T03:23:37.701Z,926.08
2023-07-03T03:24:37.821Z,959.36
2023-07-03T03:25:37.967Z,995.2
2023-07-03T03:26:38.170Z,1027.2
2023-07-03T03:27:38.276Z,1061.12
2023-07-03T03:28:38.427Z,1106.56
2023-07-03T03:29:38.619Z,1140.48
2023-07-03T03:30:38.791Z,1172.48
2023-07-03T03:31:38.889Z,1219.2
2023-07-03T03:32:39.091Z,1271.04
2023-07-03T03:33:39.228Z,1401.6
2023-07-03T03:34:39.338Z,1518.08
2023-07-03T03:35:39.491Z,1597.44
2023-07-03T03:36:39.645Z,1678.08
2023-07-03T03:37:39.808Z,1696
2023-07-03T03:38:39.946Z,1693.44
2023-07-03T03:39:40.101Z,1703.68
2023-07-03T03:40:40.276Z,1739.52
2023-07-03T03:41:40.398Z,1781.76
2023-07-03T03:42:40.544Z,1843.2
2023-07-03T03:43:40.711Z,1905.92
2023-07-03T03:44:40.850Z,1944.32
2023-07-03T03:45:40.971Z,1987.84
2023-07-03T03:46:41.145Z,2039.04
2023-07-03T03:47:41.326Z,2099.2
2023-07-03T03:48:41.508Z,2172.16
2023-07-03T03:49:41.578Z,2222.08
2023-07-03T03:50:41.716Z,2283.52
2023-07-03T03:51:41.886Z,2324.48
2023-07-03T03:52:42.034Z,2387.2
2023-07-03T03:53:42.124Z,2485.76
2023-07-03T03:54:42.272Z,2565.12
2023-07-03T03:55:42.426Z,2711.04
2023-07-03T03:56:42.580Z,2882.56
2023-07-03T03:57:42.726Z,3013.12
2023-07-03T03:58:42.876Z,3115.52
2023-07-03T03:59:42.973Z,3187.2
2023-07-03T04:00:43.126Z,3176.96
2023-07-03T04:01:43.353Z,3197.44
2023-07-03T04:02:43.478Z,3279.36
2023-07-03T04:03:46.378Z,3430.4
2023-07-03T04:04:43.699Z,3333.12
2023-07-03T04:05:43.845Z,3816.96
2023-07-03T04:06:43.947Z,3957.76
2023-07-03T04:07:44.097Z,3860.48
2023-07-03T04:08:44.260Z,3758.08
2023-07-03T04:09:44.406Z,4113.92
2023-07-03T04:10:44.569Z,4170.24
2023-07-03T04:11:44.746Z,4211.2
2023-07-03T04:12:44.974Z,4119.04
2023-07-03T04:13:45.126Z,4185.6
2023-07-03T04:14:45.280Z,4482.56
2023-07-03T04:15:45.554Z,4515.84
2023-07-03T04:16:45.863Z,4423.68
2023-07-03T04:17:45.913Z,4459.52
2023-07-03T04:18:46.033Z,4275.2
2023-07-03T04:19:46.181Z,4334.08
2023-07-03T04:20:46.312Z,4364.8
2023-07-03T04:21:46.467Z,4423.68
2023-07-03T04:22:46.616Z,4505.6
2023-07-03T04:23:46.775Z,4546.56
2023-07-03T04:24:46.937Z,4541.44
2023-07-03T04:25:47.089Z,4544
2023-07-03T04:26:47.234Z,4559.36
2023-07-03T04:27:47.381Z,4618.24
2023-07-03T04:28:47.529Z,4718.08
2023-07-03T04:29:47.680Z,4741.12
2023-07-03T04:30:47.846Z,4736
2023-07-03T04:31:48.020Z,4720.64
2023-07-03T04:32:48.165Z,4774.4
2023-07-03T04:33:48.288Z,4746.24
2023-07-03T04:34:48.462Z,4853.76
2023-07-03T04:35:48.718Z,5002.24
2023-07-03T04:36:48.829Z,5079.04
2023-07-03T04:37:48.908Z,5012.48
2023-07-03T04:38:49.050Z,5050.88
2023-07-03T04:39:49.212Z,5237.76
2023-07-03T04:40:49.366Z,5324.8
2023-07-03T04:41:49.533Z,5240.32
2023-07-03T04:42:49.660Z,5258.24
2023-07-03T04:43:49.813Z,5401.6
2023-07-03T04:44:50.002Z,5370.88
2023-07-03T04:45:50.320Z,5263.36
2023-07-03T04:46:50.264Z,5427.2
2023-07-03T04:47:50.458Z,5749.76
2023-07-03T04:48:50.590Z,5969.92
2023-07-03T04:49:50.765Z,6051.84
2023-07-03T04:50:51.115Z,5908.48
2023-07-03T04:51:51.024Z,5811.2
2023-07-03T04:52:51.175Z,5749.76
2023-07-03T04:53:51.330Z,5857.28
2023-07-03T04:54:51.492Z,6010.88
2023-07-03T04:55:51.911Z,6164.48
2023-07-03T04:56:51.790Z,6246.4
2023-07-03T04:57:51.967Z,6353.92
2023-07-03T04:58:52.098Z,6661.12
2023-07-03T04:59:52.252Z,6871.04
2023-07-03T05:00:52.404Z,6937.6
2023-07-03T05:01:52.602Z,7070.72
2023-07-03T05:02:52.745Z,7157.76
2023-07-03T05:03:52.868Z,7961.6
2023-07-03T05:04:53.052Z,7137.28
2023-07-03T05:05:53.428Z,7060.48
2023-07-03T05:06:53.300Z,7055.36
2023-07-03T05:07:53.832Z,6978.56
2023-07-03T05:08:53.585Z,6999.04
2023-07-03T05:09:53.784Z,7219.2
2023-07-03T05:10:53.865Z,7336.96
2023-07-03T05:11:54.023Z,7285.76
2023-07-03T05:12:54.204Z,7464.96
2023-07-03T05:13:54.330Z,7669.76
2023-07-03T05:14:54.484Z,7813.12
2023-07-03T05:15:54.738Z,7715.84
2023-07-03T05:16:54.783Z,7854.08
2023-07-03T05:17:54.985Z,8207.36
2023-07-03T05:18:55.080Z,8248.32
2023-07-03T05:19:55.237Z,8519.68
2023-07-03T05:20:55.408Z,9231.359
2023-07-03T05:21:55.484Z,10854.399
2023-07-03T05:22:55.652Z,8478.72
2023-07-03T05:23:55.820Z,8545.28
2023-07-03T05:24:55.951Z,8857.6
2023-07-03T05:25:56.100Z,9313.28
2023-07-03T05:26:56.258Z,10752
2023-07-03T05:27:56.353Z,9482.24
2023-07-03T05:28:56.505Z,9313.28
2023-07-03T05:29:56.664Z,10854.399
2023-07-03T05:30:56.868Z,8995.84
2023-07-03T05:31:56.976Z,8965.12
2023-07-03T05:32:57.181Z,8878.08
2023-07-03T05:33:57.261Z,9881.6
2023-07-03T05:34:57.414Z,8350.72
2023-07-03T05:35:57.677Z,8135.68
2023-07-03T05:36:57.741Z,8238.08
2023-07-03T05:37:57.874Z,8524.8
2023-07-03T05:38:58.131Z,8012.8
2023-07-03T05:39:58.211Z,6963.2
2023-07-03T05:40:58.332Z,7480.32
2023-07-03T05:41:58.490Z,8468.479
2023-07-03T05:42:58.631Z,6471.68
2023-07-03T05:43:58.823Z,7162.88
2023-07-03T05:44:58.944Z,7736.32
2023-07-03T05:45:59.094Z,8898.56
2023-07-03T05:46:59.278Z,8683.52
2023-07-03T05:47:59.398Z,8565.76
2023-07-03T05:48:59.543Z,8243.2
2023-07-03T05:49:59.756Z,8478.72
2023-07-03T05:50:59.866Z,8647.68
2023-07-03T05:52:00.010Z,9333.76
2023-07-03T05:53:00.121Z,10557.439
2023-07-03T05:54:00.346Z,12165.12
2023-07-03T05:55:00.461Z,12738.56
2023-07-03T05:56:00.600Z,14776.319
2023-07-03T05:57:00.771Z,13885.439
2023-07-03T05:58:00.912Z,13598.72
2023-07-03T05:59:01.075Z,14848
2023-07-03T06:00:01.207Z,14766.08
2023-07-03T06:01:01.437Z,11304.96
2023-07-03T06:02:01.529Z,11202.56
2023-07-03T06:03:01.775Z,11223.04
2023-07-03T06:04:01.901Z,11253.76
2023-07-03T06:05:02.029Z,11479.04
2023-07-03T06:06:02.159Z,11970.56
2023-07-03T06:07:02.296Z,12154.88
2023-07-03T06:08:02.435Z,12339.2
2023-07-03T06:09:02.557Z,12154.88
2023-07-03T06:10:02.713Z,12759.04
2023-07-03T06:11:02.845Z,12328.96
2023-07-03T06:12:03.002Z,11560.96
2023-07-03T06:13:03.148Z,11499.52
2023-07-03T06:14:03.319Z,11274.24
2023-07-03T06:15:03.435Z,12032
2023-07-03T06:16:03.586Z,12707.84
2023-07-03T06:17:03.759Z,12605.439
2023-07-03T06:18:03.928Z,12851.2
2023-07-03T06:19:04.646Z,13322.239
2023-07-03T06:21:04.352Z,13271.04
2023-07-03T06:22:04.507Z,12851.2
2023-07-03T06:23:05.295Z,12769.279
2023-07-03T06:25:05.230Z,13424.64
2023-07-03T06:26:05.410Z,12789.76
2023-07-03T06:27:05.166Z,12646.399
2023-07-03T06:28:05.307Z,12625.92
2023-07-03T06:29:05.462Z,13434.88
2023-07-03T06:30:05.633Z,15083.52
2023-07-03T06:31:05.797Z,15370.239
2023-07-03T06:32:05.916Z,14888.96
2023-07-03T06:33:06.099Z,14592
2023-07-03T06:34:06.224Z,15114.239
2023-07-03T06:35:06.924Z,16066.56
2023-07-03T06:36:06.546Z,15155.199
2023-07-03T06:37:06.735Z,14161.92
2023-07-03T06:38:06.851Z,14458.88
2023-07-03T06:39:06.986Z,14233.6
2023-07-03T06:40:07.147Z,13660.16
2023-07-03T06:42:07.442Z,14571.52
2023-07-03T06:43:07.566Z,13875.199
2023-07-03T06:44:07.723Z,14663.68
2023-07-03T06:45:07.864Z,14407.68
2023-07-03T06:46:08.036Z,13373.439
2023-07-03T06:47:08.218Z,13219.84
2023-07-03T06:48:08.315Z,13926.399
2023-07-03T06:49:08.414Z,15042.56
2023-07-03T06:50:08.562Z,15155.199
2023-07-03T06:51:08.729Z,14540.8
2023-07-03T06:52:08.877Z,13137.92
2023-07-03T06:53:09.030Z,12451.84
2023-07-03T06:54:09.171Z,12656.64
2023-07-03T06:55:09.321Z,13895.68
2023-07-03T06:56:09.469Z,14407.68
2023-07-03T06:57:09.630Z,13875.199
2023-07-03T06:58:09.765Z,13465.6
2023-07-03T06:59:09.940Z,15042.56
2023-07-03T07:00:10.092Z,14469.12
2023-07-03T07:01:10.227Z,15093.76
2023-07-03T07:02:10.439Z,14080
2023-07-03T07:03:10.610Z,15564.8
2023-07-03T07:04:10.956Z,17704.96
2023-07-03T07:05:10.890Z,15841.279
2023-07-03T07:06:11.086Z,14592
2023-07-03T07:07:11.152Z,14336
2023-07-03T07:08:11.322Z,13824
2023-07-03T07:09:11.461Z,14899.199
2023-07-03T07:10:11.610Z,16414.72
2023-07-03T07:11:11.746Z,15493.12
2023-07-03T07:12:11.905Z,15042.56
2023-07-03T07:13:12.072Z,16281.6
2023-07-03T07:14:12.243Z,17008.64
2023-07-03T07:15:12.382Z,16650.24
2023-07-03T07:16:12.531Z,14694.399
2023-07-03T07:17:12.688Z,14274.56
2023-07-03T07:18:12.835Z,19486.72
2023-07-03T07:19:12.972Z,18974.72
2023-07-03T07:20:13.118Z,15667.199
2023-07-03T07:21:13.274Z,14848
2023-07-03T07:22:13.391Z,15298.56
2023-07-03T07:23:13.693Z,17571.84
2023-07-03T07:24:13.690Z,18247.68
2023-07-03T07:25:13.860Z,18001.92
2023-07-03T07:26:14.001Z,19251.2
2023-07-03T07:27:14.174Z,20234.24
2023-07-03T07:28:14.259Z,19138.56
2023-07-03T07:29:14.382Z,21053.44
2023-07-03T07:30:14.498Z,18432
2023-07-03T07:31:14.657Z,17633.28
2023-07-03T07:32:14.793Z,17520.64
2023-07-03T07:33:14.960Z,18462.72
2023-07-03T07:34:15.111Z,19333.12
2023-07-03T07:35:15.245Z,18831.36
2023-07-03T07:36:15.397Z,21975.04
2023-07-03T07:37:15.497Z,19517.44
2023-07-03T07:38:15.658Z,18339.84
2023-07-03T07:39:15.845Z,19210.24
2023-07-03T07:40:15.961Z,20715.52
2023-07-03T07:41:16.104Z,16537.6
2023-07-03T07:42:16.279Z,15001.6
2023-07-03T07:44:16.559Z,15984.64
2023-07-03T07:45:17.299Z,18513.92
2023-07-03T07:47:17.046Z,18810.88
2023-07-03T07:48:17.690Z,17018.88
2023-07-03T07:50:18.680Z,15237.12
2023-07-03T07:51:18.336Z,16558.08
2023-07-03T07:52:17.947Z,17408
2023-07-03T07:53:18.717Z,16814.08
2023-07-03T07:54:18.958Z,14039.04
2023-07-03T07:56:18.307Z,16865.28
2023-07-03T07:57:18.448Z,14970.88
2023-07-03T07:58:18.496Z,15646.72
2023-07-03T07:59:18.635Z,20039.68
2023-07-03T08:00:18.744Z,16906.24
2023-07-03T08:01:18.978Z,10496
2023-07-03T08:02:19.093Z,18739.2
2023-07-03T08:03:19.220Z,20213.76
2023-07-03T08:04:19.474Z,22548.48
2023-07-03T08:05:19.571Z,17356.8
2023-07-03T08:06:19.649Z,20992
2023-07-03T08:07:19.800Z,17397.76
2023-07-03T08:08:19.963Z,22794.24
2023-07-03T08:09:20.104Z,19025.92
2023-07-03T08:10:20.268Z,26542.08
2023-07-03T08:11:20.427Z,30289.92
2023-07-03T08:12:20.581Z,31948.8
2023-07-03T08:13:20.713Z,25763.84
2023-07-03T08:14:20.893Z,17162.24
2023-07-03T08:15:21.056Z,14878.72
2023-07-03T08:16:21.173Z,17244.16
2023-07-03T08:17:21.380Z,18585.6
2023-07-03T08:18:21.507Z,16209.92
2023-07-03T08:19:21.654Z,16967.68
2023-07-03T08:20:21.783Z,30597.12
2023-07-03T08:21:21.936Z,19302.4
2023-07-03T08:22:22.082Z,28876.8
2023-07-03T08:23:22.246Z,20869.12
2023-07-03T08:24:22.342Z,21299.2
2023-07-03T08:25:22.437Z,26808.32
2023-07-03T08:26:22.610Z,35143.68
2023-07-03T08:27:22.770Z,21565.44
2023-07-03T08:28:22.925Z,17305.6
2023-07-03T08:29:23.069Z,17766.4
2023-07-03T08:30:23.228Z,16046.08
2023-07-03T08:31:23.414Z,16035.84
2023-07-03T08:32:23.498Z,22773.76
2023-07-03T08:33:23.691Z,24391.68
2023-07-03T08:34:23.819Z,20029.44
2023-07-03T08:37:25.503Z,16855.04
2023-07-03T08:39:25.335Z,18247.68
2023-07-03T08:41:25.428Z,17950.72
2023-07-03T08:43:25.229Z,23347.2
2023-07-03T08:44:25.393Z,29552.64
2023-07-03T08:45:25.544Z,16568.32
2023-07-03T08:46:25.808Z,15667.199
2023-07-03T08:47:25.890Z,15872
2023-07-03T08:48:26.011Z,17541.12
2023-07-03T08:49:26.085Z,19589.12
2023-07-03T08:50:36.247Z,19824.64
2023-07-03T08:51:26.409Z,21237.76
2023-07-03T08:52:26.551Z,18237.44
2023-07-03T08:53:26.705Z,18472.96
2023-07-03T08:54:26.804Z,20305.92
2023-07-03T08:55:26.980Z,21770.24
2023-07-03T08:56:27.141Z,32604.16
2023-07-03T08:57:27.265Z,19886.08
2023-07-03T08:58:27.401Z,17766.4
2023-07-03T08:59:27.571Z,17274.88
2023-07-03T09:00:27.716Z,17141.76
2023-07-03T09:01:27.887Z,17244.16
2023-07-03T09:02:28.210Z,27258.88
2023-07-03T09:03:28.418Z,21073.92
2023-07-03T09:04:28.456Z,47063.04
2023-07-03T09:05:28.567Z,26316.8
2023-07-03T09:06:28.748Z,29593.6
2023-07-03T09:07:28.866Z,25088
2023-07-03T09:08:29.024Z,17469.44
2023-07-03T09:09:29.202Z,17745.92
2023-07-03T09:10:29.320Z,21995.52
2023-07-03T09:11:29.484Z,17879.04
2023-07-03T09:12:29.622Z,17858.56
2023-07-03T09:13:29.784Z,21483.52
2023-07-03T09:14:29.942Z,51159.04
2023-07-03T09:15:30.103Z,24166.4
2023-07-03T09:16:30.348Z,25169.92
2023-07-03T09:17:30.478Z,54353.92
2023-07-03T09:18:30.641Z,44072.96
2023-07-03T09:19:30.809Z,38400
2023-07-03T09:20:30.953Z,34099.2
2023-07-03T09:21:31.108Z,27893.76
2023-07-03T09:22:31.213Z,30208
2023-07-03T09:23:31.353Z,25436.16
2023-07-03T09:24:31.510Z,22876.16
2023-07-03T09:25:31.619Z,22691.84
2023-07-03T09:26:31.761Z,23859.2
2023-07-03T09:27:32.659Z,22978.56
2023-07-03T09:28:32.057Z,20992
2023-07-03T09:29:32.772Z,22528
2023-07-03T09:30:32.414Z,59883.52
2023-07-03T09:31:32.602Z,61808.64
2023-07-03T09:32:32.750Z,58982.4
2023-07-03T09:33:32.827Z,55255.04
2023-07-03T09:34:32.965Z,55296
2023-07-03T09:35:34.914Z,37826.56
2023-07-03T09:36:33.274Z,58163.2
2023-07-03T09:37:33.424Z,26972.16
2023-07-03T09:38:33.574Z,22487.04
2023-07-03T09:39:33.752Z,23203.84
2023-07-03T09:40:33.959Z,26071.04
2023-07-03T09:41:34.022Z,27791.36
2023-07-03T09:42:34.190Z,21319.68
2023-07-03T09:43:34.347Z,20336.64
2023-07-03T09:44:34.488Z,22323.2
2023-07-03T09:45:34.649Z,28200.96
2023-07-03T09:46:34.797Z,39075.84
2023-07-03T09:47:35.884Z,30310.4
2023-07-03T09:48:35.163Z,26931.2
2023-07-03T09:49:35.248Z,23920.64
2023-07-03T09:50:35.415Z,23859.2
2023-07-03T09:51:35.542Z,62750.72
2023-07-03T09:52:35.708Z,22384.64
2023-07-03T09:53:35.891Z,23715.84
2023-07-03T09:54:36.013Z,25989.12
2023-07-03T09:55:36.884Z,47759.36
2023-07-03T09:57:36.973Z,55459.84
2023-07-03T09:59:36.770Z,50544.64
2023-07-03T10:00:36.953Z,61808.64
2023-07-03T10:03:38.250Z,67706.88
2023-07-03T10:06:39.616Z,27054.08
2023-07-03T10:07:38.114Z,24862.72
2023-07-03T10:08:38.747Z,19978.24
2023-07-03T10:11:40.105Z,24125.44
2023-07-03T10:12:38.863Z,23797.76
2023-07-03T10:13:40.113Z,25866.24
2023-07-03T10:15:39.288Z,32972.8
2023-07-03T10:16:39.412Z,48947.2
2023-07-03T10:17:39.721Z,25436.16
2023-07-03T10:18:39.701Z,23838.72
2023-07-03T10:19:39.857Z,68444.16
2023-07-03T10:20:40.010Z,35655.68
2023-07-03T10:21:40.175Z,71639.04
2023-07-03T10:22:40.317Z,71229.44
2023-07-03T10:23:40.471Z,66068.48
2023-07-03T10:24:40.624Z,76595.2
2023-07-03T10:25:40.774Z,82493.44
2023-07-03T10:26:40.924Z,78520.32
2023-07-03T10:27:41.086Z,34611.2
2023-07-03T10:28:41.296Z,92487.68
2023-07-03T10:29:41.368Z,80445.44
2023-07-03T10:30:41.525Z,33136.64
2023-07-03T10:31:42.841Z,76472.32
2023-07-03T10:32:41.859Z,34488.32
2023-07-03T10:33:41.993Z,33935.36
2023-07-03T10:34:42.175Z,89047.04
2023-07-03T10:35:42.281Z,24227.84
2023-07-03T10:36:42.435Z,22179.84
2023-07-03T10:37:42.584Z,22282.24
2023-07-03T10:38:42.794Z,21278.72
2023-07-03T10:39:42.904Z,21299.2
2023-07-03T10:40:43.070Z,21340.16
2023-07-03T10:41:43.196Z,24084.48
2023-07-03T10:42:43.296Z,36106.24
2023-07-03T10:43:43.449Z,31129.6
2023-07-03T10:44:43.632Z,28385.28
2023-07-03T10:45:43.721Z,35246.08
2023-07-03T10:46:43.898Z,35840
2023-07-03T10:47:44.070Z,95354.88
2023-07-03T10:48:44.170Z,41226.24
2023-07-03T10:49:44.329Z,64225.28
2023-07-03T10:50:44.467Z,34365.44
2023-07-03T10:51:44.632Z,76840.96
2023-07-03T10:52:44.770Z,27238.4
2023-07-03T10:53:44.926Z,26603.52
2023-07-03T10:54:45.094Z,22978.56
2023-07-03T10:55:45.226Z,22036.48
2023-07-03T10:56:45.382Z,24432.64
2023-07-03T10:57:45.529Z,27115.52
2023-07-03T10:58:45.706Z,31723.52
2023-07-03T10:59:45.843Z,35962.88
2023-07-03T11:00:45.995Z,38727.68
2023-07-03T11:01:46.227Z,36311.04
2023-07-03T11:02:46.310Z,106496
2023-07-03T11:03:47.888Z,81960.96
2023-07-03T11:04:46.669Z,33669.12
2023-07-03T11:05:46.745Z,64102.4
2023-07-03T11:06:46.903Z,55992.32
2023-07-03T11:07:47.061Z,29839.36
2023-07-03T11:08:47.213Z,28958.72
2023-07-03T11:09:47.350Z,27320.32
2023-07-03T11:10:47.505Z,27074.56
2023-07-03T11:11:47.671Z,27791.36
2023-07-03T11:12:47.814Z,31948.8
2023-07-03T11:13:48.052Z,38481.92
2023-07-03T11:14:48.117Z,44769.28
2023-07-03T11:15:48.303Z,30208
2023-07-03T11:16:48.434Z,34017.28
2023-07-03T11:19:49.861Z,30146.56
2023-07-03T11:22:50.644Z,37007.36
2023-07-03T11:23:49.593Z,45178.88
2023-07-03T11:24:50.227Z,91914.23
2023-07-03T11:28:50.299Z,107069.44
2023-07-03T11:29:50.444Z,116408.32
2023-07-03T11:30:50.854Z,74342.4
2023-07-03T11:31:50.775Z,112312.32
2023-07-03T11:32:50.982Z,109281.28
2023-07-03T11:35:52.131Z,29327.36
2023-07-03T11:39:53.018Z,21401.6
2023-07-03T11:43:53.550Z,108216.32
2023-07-03T11:44:53.370Z,95846.4
2023-07-03T11:45:52.994Z,26624
2023-07-03T11:46:53.075Z,22691.84
2023-07-03T11:47:53.237Z,18708.48
2023-07-03T11:48:53.341Z,16107.52
2023-07-03T11:49:53.517Z,12943.359
2023-07-03T11:50:53.635Z,11356.16
2023-07-03T11:51:53.780Z,12605.439
2023-07-03T11:52:53.956Z,15923.199
2023-07-03T11:53:54.096Z,18565.12
2023-07-03T11:54:54.251Z,19752.96
2023-07-03T11:55:54.390Z,20643.84
2023-07-03T11:56:54.556Z,25559.04
2023-07-03T11:58:04.299Z,33218.56
2023-07-03T11:58:55.294Z,52715.52
2023-07-03T11:59:54.991Z,115343.36
2023-07-03T12:00:55.180Z,114688
2023-07-03T12:01:55.314Z,114032.64
2023-07-03T12:02:55.465Z,60743.68
2023-07-03T12:03:55.684Z,107970.55
2023-07-03T12:04:55.752Z,25047.04
2023-07-03T12:05:55.924Z,31006.72
2023-07-03T12:06:56.062Z,50872.32
2023-07-03T12:07:56.242Z,26357.76
2023-07-03T12:08:56.377Z,23121.92
2023-07-03T12:09:56.533Z,38236.16
2023-07-03T12:10:57.210Z,25559.04
2023-07-03T12:11:56.825Z,25661.44
2023-07-03T12:12:56.998Z,23654.4
2023-07-03T12:13:57.158Z,22261.76
2023-07-03T12:14:57.306Z,21872.64
2023-07-03T12:15:57.460Z,23695.36
2023-07-03T12:16:57.637Z,25866.24
2023-07-03T12:17:57.750Z,32296.96
2023-07-03T12:18:57.842Z,37089.28
2023-07-03T12:19:57.979Z,50216.96
2023-07-03T12:20:58.139Z,110018.55
2023-07-03T12:21:58.306Z,34078.72
2023-07-03T12:22:58.530Z,38625.28
2023-07-03T12:23:58.601Z,116817.91
2023-07-03T12:24:58.760Z,121323.52
2023-07-03T12:25:58.905Z,44974.08
2023-07-03T12:26:59.054Z,95109.12
2023-07-03T12:27:59.227Z,33669.12
2023-07-03T12:28:59.352Z,36188.16
2023-07-03T12:29:59.527Z,24760.32
2023-07-03T12:30:59.717Z,20869.12
2023-07-03T12:31:59.840Z,19015.68
2023-07-03T12:32:59.976Z,18954.24
2023-07-03T12:34:00.116Z,21278.72
2023-07-03T12:35:00.259Z,63733.76
2023-07-03T12:36:00.430Z,30064.64
2023-07-03T12:37:02.209Z,23879.68
2023-07-03T12:39:00.819Z,20213.76
2023-07-03T12:40:00.975Z,20807.68
2023-07-03T12:41:01.128Z,24371.2
2023-07-03T12:42:01.292Z,30023.68
2023-07-03T12:43:01.444Z,36372.48
2023-07-03T12:44:07.866Z,115261.44
2023-07-03T12:45:01.738Z,44523.52
2023-07-03T12:46:01.882Z,48865.28
2023-07-03T12:47:02.104Z,118210.55
2023-07-03T12:48:02.254Z,118620.16
2023-07-03T12:49:02.334Z,117800.96
2023-07-03T12:50:02.503Z,35840
2023-07-03T12:51:02.647Z,101089.28
2023-07-03T12:52:02.813Z,86097.92
2023-07-03T12:53:02.955Z,40980.48
2023-07-03T12:54:03.180Z,114851.84
2023-07-03T12:56:04.184Z,49807.36
2023-07-03T12:58:03.706Z,72581.12
2023-07-03T12:59:03.858Z,111493.12
2023-07-03T13:00:04.015Z,32296.96
2023-07-03T13:01:04.169Z,29962.24
2023-07-03T13:02:04.323Z,33423.36
2023-07-03T13:03:04.518Z,88555.52
2023-07-03T13:04:04.616Z,122880